sensor_id;sensor_type;location;lat;lon;timestamp;temperature;humidity
34099;DHT22;20374;49.474;10.944;2023-02-15T00:01:11;0.30;99.90
34099;DHT22;20374;49.474;10.944;2023-02-15T00:03:38;0.30;99.90
34099;DHT22;20374;49.474;10.944;2023-02-15T00:06:04;0.20;99.90
34099;DHT22;20374;49.474;10.944;2023-02-15T00:08:31;0.20;99.90
34099;DHT22;20374;49.474;10.944;2023-02-15T00:11:08;0.20;99.90
34099;DHT22;20374;49.474;10.944;2023-02-15T00:13:35;0.20;99.90
34099;DHT22;20374;49.474;10.944;2023-02-15T00:16:06;0.10;99.90
34099;DHT22;20374;49.474;10.944;2023-02-15T00:18:33;0.10;99.90
34099;DHT22;20374;49.474;10.944;2023-02-15T00:21:04;0.00;99.90
34099;DHT22;20374;49.474;10.944;2023-02-15T00:23:31;0.00;99.90
34099;DHT22;20374;49.474;10.944;2023-02-15T00:26:23;0.10;99.90
34099;DHT22;20374;49.474;10.944;2023-02-15T00:28:49;0.00;99.90
34099;DHT22;20374;49.474;10.944;2023-02-15T00:31:15;0.00;99.90
34099;DHT22;20374;49.474;10.944;2023-02-15T00:33:41;0.10;99.90
34099;DHT22;20374;49.474;10.944;2023-02-15T00:36:08;0.10;99.90
34099;DHT22;20374;49.474;10.944;2023-02-15T00:38:35;0.10;99.90
34099;DHT22;20374;49.474;10.944;2023-02-15T00:41:04;0.10;99.90
34099;DHT22;20374;49.474;10.944;2023-02-15T00:43:31;0.20;99.90
34099;DHT22;20374;49.474;10.944;2023-02-15T00:45:58;0.20;99.90
34099;DHT22;20374;49.474;10.944;2023-02-15T00:48:25;0.20;99.90
34099;DHT22;20374;49.474;10.944;2023-02-15T00:50:53;0.10;99.90
34099;DHT22;20374;49.474;10.944;2023-02-15T00:53:20;0.00;99.90
34099;DHT22;20374;49.474;10.944;2023-02-15T00:55:47;0.00;99.90
34099;DHT22;20374;49.474;10.944;2023-02-15T00:58:14;0.00;99.90
34099;DHT22;20374;49.474;10.944;2023-02-15T01:00:42;0.00;99.90
34099;DHT22;20374;49.474;10.944;2023-02-15T01:03:09;0.00;99.90
34099;DHT22;20374;49.474;10.944;2023-02-15T01:05:35;-0.10;99.90
34099;DHT22;20374;49.474;10.944;2023-02-15T01:08:03;-0.10;99.90
34099;DHT22;20374;49.474;10.944;2023-02-15T01:10:29;-0.10;99.90
34099;DHT22;20374;49.474;10.944;2023-02-15T01:12:56;-0.10;99.90
34099;DHT22;20374;49.474;10.944;2023-02-15T01:15:22;-0.10;99.90
34099;DHT22;20374;49.474;10.944;2023-02-15T01:17:49;-0.10;99.90
34099;DHT22;20374;49.474;10.944;2023-02-15T01:20:26;-0.20;99.90
34099;DHT22;20374;49.474;10.944;2023-02-15T01:22:53;-0.10;99.90
34099;DHT22;20374;49.474;10.944;2023-02-15T01:25:21;-0.20;99.90
34099;DHT22;20374;49.474;10.944;2023-02-15T01:27:48;-0.10;99.90
34099;DHT22;20374;49.474;10.944;2023-02-15T01:30:15;-0.20;99.90
34099;DHT22;20374;49.474;10.944;2023-02-15T01:32:42;-0.20;99.90
34099;DHT22;20374;49.474;10.944;2023-02-15T01:35:09;-0.20;99.90
34099;DHT22;20374;49.474;10.944;2023-02-15T01:37:35;-0.20;99.90
34099;DHT22;20374;49.474;10.944;2023-02-15T01:40:04;-0.20;99.90
34099;DHT22;20374;49.474;10.944;2023-02-15T01:42:31;-0.30;99.90
34099;DHT22;20374;49.474;10.944;2023-02-15T01:45:00;-0.30;99.90
34099;DHT22;20374;49.474;10.944;2023-02-15T01:47:39;-0.20;99.90
34099;DHT22;20374;49.474;10.944;2023-02-15T01:52:57;-0.30;99.90
34099;DHT22;20374;49.474;10.944;2023-02-15T01:55:26;-0.20;99.90
34099;DHT22;20374;49.474;10.944;2023-02-15T01:57:54;-0.20;99.90
34099;DHT22;20374;49.474;10.944;2023-02-15T02:00:20;-0.20;99.90
34099;DHT22;20374;49.474;10.944;2023-02-15T02:02:48;-0.20;99.90
34099;DHT22;20374;49.474;10.944;2023-02-15T02:05:15;-0.30;99.90
34099;DHT22;20374;49.474;10.944;2023-02-15T02:07:44;-0.30;99.90
34099;DHT22;20374;49.474;10.944;2023-02-15T02:10:14;-0.50;99.90
34099;DHT22;20374;49.474;10.944;2023-02-15T02:12:42;-0.40;99.90
34099;DHT22;20374;49.474;10.944;2023-02-15T02:15:09;-0.40;99.90
34099;DHT22;20374;49.474;10.944;2023-02-15T02:23:14;-0.40;99.90
34099;DHT22;20374;49.474;10.944;2023-02-15T02:28:51;-0.40;99.90
34099;DHT22;20374;49.474;10.944;2023-02-15T02:42:13;-0.40;99.90
34099;DHT22;20374;49.474;10.944;2023-02-15T02:45:08;-0.50;99.90
34099;DHT22;20374;49.474;10.944;2023-02-15T02:47:50;-0.50;99.90
34099;DHT22;20374;49.474;10.944;2023-02-15T02:50:23;-0.50;99.90
34099;DHT22;20374;49.474;10.944;2023-02-15T02:52:52;-0.60;99.90
34099;DHT22;20374;49.474;10.944;2023-02-15T02:55:26;-0.50;99.90
34099;DHT22;20374;49.474;10.944;2023-02-15T02:57:58;-0.60;99.90
34099;DHT22;20374;49.474;10.944;2023-02-15T03:00:30;-0.60;99.90
34099;DHT22;20374;49.474;10.944;2023-02-15T03:03:03;-0.60;99.90
34099;DHT22;20374;49.474;10.944;2023-02-15T03:05:33;-0.60;99.90
34099;DHT22;20374;49.474;10.944;2023-02-15T03:08:01;-0.60;99.90
34099;DHT22;20374;49.474;10.944;2023-02-15T03:10:32;-0.70;99.90
34099;DHT22;20374;49.474;10.944;2023-02-15T03:13:00;-0.70;99.90
34099;DHT22;20374;49.474;10.944;2023-02-15T03:15:31;-0.80;99.90
34099;DHT22;20374;49.474;10.944;2023-02-15T03:18:23;-0.80;99.90
34099;DHT22;20374;49.474;10.944;2023-02-15T03:20:52;-0.80;99.90
34099;DHT22;20374;49.474;10.944;2023-02-15T03:23:23;-0.70;99.90
34099;DHT22;20374;49.474;10.944;2023-02-15T03:25:53;-0.80;99.90
34099;DHT22;20374;49.474;10.944;2023-02-15T03:28:36;-0.80;99.90
34099;DHT22;20374;49.474;10.944;2023-02-15T03:31:06;-1.00;99.90
34099;DHT22;20374;49.474;10.944;2023-02-15T03:33:36;-0.80;99.90
34099;DHT22;20374;49.474;10.944;2023-02-15T03:39:12;-0.80;99.90
34099;DHT22;20374;49.474;10.944;2023-02-15T03:44:24;-0.80;99.90
34099;DHT22;20374;49.474;10.944;2023-02-15T03:47:07;-0.80;99.90
34099;DHT22;20374;49.474;10.944;2023-02-15T03:49:55;-0.80;99.90
34099;DHT22;20374;49.474;10.944;2023-02-15T03:52:25;-0.80;99.90
34099;DHT22;20374;49.474;10.944;2023-02-15T03:54:52;-0.80;99.90
34099;DHT22;20374;49.474;10.944;2023-02-15T03:57:21;-0.70;99.90
34099;DHT22;20374;49.474;10.944;2023-02-15T04:05:44;-0.70;99.90
34099;DHT22;20374;49.474;10.944;2023-02-15T04:08:11;-0.70;99.90
34099;DHT22;20374;49.474;10.944;2023-02-15T04:10:37;-0.60;99.90
34099;DHT22;20374;49.474;10.944;2023-02-15T04:13:22;-0.70;99.90
34099;DHT22;20374;49.474;10.944;2023-02-15T04:15:49;-0.80;99.90
34099;DHT22;20374;49.474;10.944;2023-02-15T04:18:31;-0.80;99.90
34099;DHT22;20374;49.474;10.944;2023-02-15T04:21:16;-0.80;99.90
34099;DHT22;20374;49.474;10.944;2023-02-15T04:24:00;-0.90;99.90
34099;DHT22;20374;49.474;10.944;2023-02-15T04:26:45;-1.00;99.90
34099;DHT22;20374;49.474;10.944;2023-02-15T04:29:16;-0.90;99.90
34099;DHT22;20374;49.474;10.944;2023-02-15T04:31:43;-0.90;99.90
34099;DHT22;20374;49.474;10.944;2023-02-15T04:34:09;-0.90;99.90
34099;DHT22;20374;49.474;10.944;2023-02-15T04:36:37;-0.90;99.90
34099;DHT22;20374;49.474;10.944;2023-02-15T04:39:03;-0.90;99.90
34099;DHT22;20374;49.474;10.944;2023-02-15T04:41:29;-0.90;99.90
34099;DHT22;20374;49.474;10.944;2023-02-15T04:43:55;-0.90;99.90
34099;DHT22;20374;49.474;10.944;2023-02-15T04:46:22;-0.90;99.90
34099;DHT22;20374;49.474;10.944;2023-02-15T04:48:48;-0.90;99.90
34099;DHT22;20374;49.474;10.944;2023-02-15T04:51:14;-0.90;99.90
34099;DHT22;20374;49.474;10.944;2023-02-15T04:53:40;-0.90;99.90
34099;DHT22;20374;49.474;10.944;2023-02-15T04:56:06;-0.90;99.90
34099;DHT22;20374;49.474;10.944;2023-02-15T04:58:32;-0.90;99.90
34099;DHT22;20374;49.474;10.944;2023-02-15T05:00:58;-0.90;99.90
34099;DHT22;20374;49.474;10.944;2023-02-15T05:03:24;-0.90;99.90
34099;DHT22;20374;49.474;10.944;2023-02-15T05:05:50;-0.90;99.90
34099;DHT22;20374;49.474;10.944;2023-02-15T05:08:16;-1.00;99.90
34099;DHT22;20374;49.474;10.944;2023-02-15T05:10:42;-0.90;99.90
34099;DHT22;20374;49.474;10.944;2023-02-15T05:13:08;-0.90;99.90
34099;DHT22;20374;49.474;10.944;2023-02-15T05:15:34;-0.90;99.90
34099;DHT22;20374;49.474;10.944;2023-02-15T05:18:00;-0.90;99.90
34099;DHT22;20374;49.474;10.944;2023-02-15T05:20:27;-0.90;99.90
34099;DHT22;20374;49.474;10.944;2023-02-15T05:22:53;-0.90;99.90
34099;DHT22;20374;49.474;10.944;2023-02-15T05:25:20;-1.00;99.90
34099;DHT22;20374;49.474;10.944;2023-02-15T05:28:05;-1.00;99.90
34099;DHT22;20374;49.474;10.944;2023-02-15T05:33:25;-1.00;99.90
34099;DHT22;20374;49.474;10.944;2023-02-15T05:35:51;-0.90;99.90
34099;DHT22;20374;49.474;10.944;2023-02-15T05:38:17;-0.90;99.90
34099;DHT22;20374;49.474;10.944;2023-02-15T05:40:43;-1.00;99.90
34099;DHT22;20374;49.474;10.944;2023-02-15T05:43:09;-1.00;99.90
34099;DHT22;20374;49.474;10.944;2023-02-15T05:45:35;-1.00;99.90
34099;DHT22;20374;49.474;10.944;2023-02-15T05:48:00;-1.00;99.90
34099;DHT22;20374;49.474;10.944;2023-02-15T05:50:26;-1.00;99.90
34099;DHT22;20374;49.474;10.944;2023-02-15T05:52:53;-1.00;99.90
34099;DHT22;20374;49.474;10.944;2023-02-15T05:55:19;-1.00;99.90
34099;DHT22;20374;49.474;10.944;2023-02-15T05:57:45;-1.00;99.90
34099;DHT22;20374;49.474;10.944;2023-02-15T06:00:14;-1.00;99.90
34099;DHT22;20374;49.474;10.944;2023-02-15T06:02:40;-1.00;99.90
34099;DHT22;20374;49.474;10.944;2023-02-15T06:05:06;-1.00;99.90
34099;DHT22;20374;49.474;10.944;2023-02-15T06:07:33;-1.00;99.90
34099;DHT22;20374;49.474;10.944;2023-02-15T06:09:59;-1.00;99.90
34099;DHT22;20374;49.474;10.944;2023-02-15T06:12:25;-1.10;99.90
34099;DHT22;20374;49.474;10.944;2023-02-15T06:14:51;-1.10;99.90
34099;DHT22;20374;49.474;10.944;2023-02-15T06:17:17;-1.10;99.90
34099;DHT22;20374;49.474;10.944;2023-02-15T06:19:43;-1.10;99.90
34099;DHT22;20374;49.474;10.944;2023-02-15T06:22:09;-1.10;99.90
34099;DHT22;20374;49.474;10.944;2023-02-15T06:24:35;-1.10;99.90
34099;DHT22;20374;49.474;10.944;2023-02-15T06:27:01;-1.10;99.90
34099;DHT22;20374;49.474;10.944;2023-02-15T06:29:27;-1.20;99.90
34099;DHT22;20374;49.474;10.944;2023-02-15T06:31:53;-1.20;99.90
34099;DHT22;20374;49.474;10.944;2023-02-15T06:34:19;-1.20;99.90
34099;DHT22;20374;49.474;10.944;2023-02-15T06:36:45;-1.20;99.90
34099;DHT22;20374;49.474;10.944;2023-02-15T06:39:11;-1.20;99.90
34099;DHT22;20374;49.474;10.944;2023-02-15T06:41:37;-1.20;99.90
34099;DHT22;20374;49.474;10.944;2023-02-15T06:44:03;-1.20;99.90
34099;DHT22;20374;49.474;10.944;2023-02-15T06:46:29;-1.20;99.90
34099;DHT22;20374;49.474;10.944;2023-02-15T06:48:55;-1.20;99.90
34099;DHT22;20374;49.474;10.944;2023-02-15T06:51:21;-1.20;99.90
34099;DHT22;20374;49.474;10.944;2023-02-15T06:53:47;-1.20;99.90
34099;DHT22;20374;49.474;10.944;2023-02-15T06:56:13;-1.20;99.90
34099;DHT22;20374;49.474;10.944;2023-02-15T06:58:40;-1.20;99.90
34099;DHT22;20374;49.474;10.944;2023-02-15T07:01:07;-1.20;99.90
34099;DHT22;20374;49.474;10.944;2023-02-15T07:03:34;-1.20;99.90
34099;DHT22;20374;49.474;10.944;2023-02-15T07:06:02;-1.20;99.90
34099;DHT22;20374;49.474;10.944;2023-02-15T07:08:31;-1.00;99.90
34099;DHT22;20374;49.474;10.944;2023-02-15T07:10:57;-1.20;99.90
34099;DHT22;20374;49.474;10.944;2023-02-15T07:13:43;-1.20;99.90
34099;DHT22;20374;49.474;10.944;2023-02-15T07:16:09;-1.30;99.90
34099;DHT22;20374;49.474;10.944;2023-02-15T07:18:36;-1.30;99.90
34099;DHT22;20374;49.474;10.944;2023-02-15T07:21:02;-1.30;99.90
34099;DHT22;20374;49.474;10.944;2023-02-15T07:23:28;-1.40;99.90
34099;DHT22;20374;49.474;10.944;2023-02-15T07:26:01;-1.30;99.90
34099;DHT22;20374;49.474;10.944;2023-02-15T07:28:28;-1.20;99.90
34099;DHT22;20374;49.474;10.944;2023-02-15T07:30:54;-1.30;99.90
34099;DHT22;20374;49.474;10.944;2023-02-15T07:33:20;-1.40;99.90
34099;DHT22;20374;49.474;10.944;2023-02-15T07:35:51;-1.30;99.90
34099;DHT22;20374;49.474;10.944;2023-02-15T07:38:18;-1.40;99.90
34099;DHT22;20374;49.474;10.944;2023-02-15T07:40:45;-1.30;99.90
34099;DHT22;20374;49.474;10.944;2023-02-15T07:43:14;-1.10;99.90
34099;DHT22;20374;49.474;10.944;2023-02-15T07:45:40;-1.30;99.90
34099;DHT22;20374;49.474;10.944;2023-02-15T07:48:06;-1.20;99.90
34099;DHT22;20374;49.474;10.944;2023-02-15T07:50:33;-1.20;99.90
34099;DHT22;20374;49.474;10.944;2023-02-15T07:53:01;-1.20;99.90
34099;DHT22;20374;49.474;10.944;2023-02-15T07:55:28;-1.20;99.90
34099;DHT22;20374;49.474;10.944;2023-02-15T07:57:54;-1.20;99.90
34099;DHT22;20374;49.474;10.944;2023-02-15T08:00:22;-1.20;99.90
34099;DHT22;20374;49.474;10.944;2023-02-15T08:02:52;-1.20;99.90
34099;DHT22;20374;49.474;10.944;2023-02-15T08:05:43;-1.20;99.90
34099;DHT22;20374;49.474;10.944;2023-02-15T08:08:10;-1.20;99.90
34099;DHT22;20374;49.474;10.944;2023-02-15T08:11:05;-1.10;99.90
34099;DHT22;20374;49.474;10.944;2023-02-15T08:13:55;-1.10;99.90
34099;DHT22;20374;49.474;10.944;2023-02-15T08:16:26;-1.00;99.90
34099;DHT22;20374;49.474;10.944;2023-02-15T08:18:54;-1.00;99.90
34099;DHT22;20374;49.474;10.944;2023-02-15T08:21:21;-1.00;99.90
34099;DHT22;20374;49.474;10.944;2023-02-15T08:23:47;-1.10;99.90
34099;DHT22;20374;49.474;10.944;2023-02-15T08:26:14;-1.10;99.90
34099;DHT22;20374;49.474;10.944;2023-02-15T08:28:41;-1.10;99.90
34099;DHT22;20374;49.474;10.944;2023-02-15T08:31:08;-1.20;99.90
34099;DHT22;20374;49.474;10.944;2023-02-15T08:33:36;-1.20;99.90
34099;DHT22;20374;49.474;10.944;2023-02-15T08:36:08;-1.10;99.90
34099;DHT22;20374;49.474;10.944;2023-02-15T08:38:34;-1.00;99.90
34099;DHT22;20374;49.474;10.944;2023-02-15T08:41:24;-1.00;99.90
34099;DHT22;20374;49.474;10.944;2023-02-15T08:43:53;-1.00;99.90
34099;DHT22;20374;49.474;10.944;2023-02-15T08:46:20;-0.90;99.90
34099;DHT22;20374;49.474;10.944;2023-02-15T08:48:47;-0.90;99.90
34099;DHT22;20374;49.474;10.944;2023-02-15T08:51:15;-0.80;99.90
34099;DHT22;20374;49.474;10.944;2023-02-15T08:53:44;-0.80;99.90
34099;DHT22;20374;49.474;10.944;2023-02-15T08:56:11;-0.80;99.90
34099;DHT22;20374;49.474;10.944;2023-02-15T08:58:38;-0.70;99.90
34099;DHT22;20374;49.474;10.944;2023-02-15T09:01:11;-0.80;99.90
34099;DHT22;20374;49.474;10.944;2023-02-15T09:03:38;-0.70;99.90
34099;DHT22;20374;49.474;10.944;2023-02-15T09:06:05;-0.60;99.90
34099;DHT22;20374;49.474;10.944;2023-02-15T09:08:31;-0.60;99.90
34099;DHT22;20374;49.474;10.944;2023-02-15T09:11:07;-0.50;99.90
34099;DHT22;20374;49.474;10.944;2023-02-15T09:13:33;-0.40;99.90
34099;DHT22;20374;49.474;10.944;2023-02-15T09:16:03;-0.20;99.90
34099;DHT22;20374;49.474;10.944;2023-02-15T09:18:32;-0.30;99.90
34099;DHT22;20374;49.474;10.944;2023-02-15T09:21:07;-0.30;99.90
34099;DHT22;20374;49.474;10.944;2023-02-15T09:23:34;-0.30;99.90
34099;DHT22;20374;49.474;10.944;2023-02-15T09:26:04;-0.20;99.90
34099;DHT22;20374;49.474;10.944;2023-02-15T09:28:31;-0.20;99.90
34099;DHT22;20374;49.474;10.944;2023-02-15T09:31:13;-0.20;99.90
34099;DHT22;20374;49.474;10.944;2023-02-15T09:33:40;-0.10;99.90
34099;DHT22;20374;49.474;10.944;2023-02-15T09:36:16;-0.10;99.90
34099;DHT22;20374;49.474;10.944;2023-02-15T09:38:44;0.00;99.90
34099;DHT22;20374;49.474;10.944;2023-02-15T09:55:48;0.00;99.90
34099;DHT22;20374;49.474;10.944;2023-02-15T10:01:13;0.10;99.90
34099;DHT22;20374;49.474;10.944;2023-02-15T10:03:53;0.30;99.90
34099;DHT22;20374;49.474;10.944;2023-02-15T10:06:44;0.20;99.90
34099;DHT22;20374;49.474;10.944;2023-02-15T10:09:30;0.30;99.90
34099;DHT22;20374;49.474;10.944;2023-02-15T10:22:27;0.50;99.90
34099;DHT22;20374;49.474;10.944;2023-02-15T10:27:47;0.50;99.90
34099;DHT22;20374;49.474;10.944;2023-02-15T10:30:36;0.60;99.90
34099;DHT22;20374;49.474;10.944;2023-02-15T10:38:53;0.80;99.90
34099;DHT22;20374;49.474;10.944;2023-02-15T11:01:39;1.40;99.90
34099;DHT22;20374;49.474;10.944;2023-02-15T11:04:34;1.50;99.90
34099;DHT22;20374;49.474;10.944;2023-02-15T11:07:11;1.60;99.90
34099;DHT22;20374;49.474;10.944;2023-02-15T11:09:46;1.60;99.90
34099;DHT22;20374;49.474;10.944;2023-02-15T11:12:19;1.60;99.90
34099;DHT22;20374;49.474;10.944;2023-02-15T11:17:25;1.60;99.90
34099;DHT22;20374;49.474;10.944;2023-02-15T11:20:04;1.60;99.90
34099;DHT22;20374;49.474;10.944;2023-02-15T11:22:33;1.60;99.90
34099;DHT22;20374;49.474;10.944;2023-02-15T11:25:00;1.70;99.90
34099;DHT22;20374;49.474;10.944;2023-02-15T11:27:31;1.60;99.90
34099;DHT22;20374;49.474;10.944;2023-02-15T11:32:40;1.60;99.90
34099;DHT22;20374;49.474;10.944;2023-02-15T11:38:16;1.70;99.90
34099;DHT22;20374;49.474;10.944;2023-02-15T11:40:55;1.90;99.90
34099;DHT22;20374;49.474;10.944;2023-02-15T11:46:11;2.10;99.90
34099;DHT22;20374;49.474;10.944;2023-02-15T11:48:38;2.10;99.90
34099;DHT22;20374;49.474;10.944;2023-02-15T11:51:04;2.00;99.90
34099;DHT22;20374;49.474;10.944;2023-02-15T11:53:36;2.00;99.90
34099;DHT22;20374;49.474;10.944;2023-02-15T11:56:03;1.90;99.90
34099;DHT22;20374;49.474;10.944;2023-02-15T12:01:46;2.00;99.90
34099;DHT22;20374;49.474;10.944;2023-02-15T12:04:28;2.10;99.90
34099;DHT22;20374;49.474;10.944;2023-02-15T12:07:13;2.00;99.90
34099;DHT22;20374;49.474;10.944;2023-02-15T12:09:58;2.00;99.90
34099;DHT22;20374;49.474;10.944;2023-02-15T12:12:27;2.10;99.90
34099;DHT22;20374;49.474;10.944;2023-02-15T12:14:56;2.40;99.90
34099;DHT22;20374;49.474;10.944;2023-02-15T12:17:25;2.70;99.90
34099;DHT22;20374;49.474;10.944;2023-02-15T12:19:56;2.80;99.90
34099;DHT22;20374;49.474;10.944;2023-02-15T12:22:31;3.00;99.90
34099;DHT22;20374;49.474;10.944;2023-02-15T12:25:03;3.10;99.90
34099;DHT22;20374;49.474;10.944;2023-02-15T12:27:34;3.20;99.90
34099;DHT22;20374;49.474;10.944;2023-02-15T12:30:07;3.30;99.90
34099;DHT22;20374;49.474;10.944;2023-02-15T12:32:52;3.40;99.90
34099;DHT22;20374;49.474;10.944;2023-02-15T12:37:56;3.60;99.90
34099;DHT22;20374;49.474;10.944;2023-02-15T12:40:28;3.80;99.90
34099;DHT22;20374;49.474;10.944;2023-02-15T12:42:54;4.10;99.90
34099;DHT22;20374;49.474;10.944;2023-02-15T12:45:30;4.30;99.90
34099;DHT22;20374;49.474;10.944;2023-02-15T12:50:39;4.00;99.90
34099;DHT22;20374;49.474;10.944;2023-02-15T12:56:03;3.70;99.90
34099;DHT22;20374;49.474;10.944;2023-02-15T12:58:32;3.60;99.90
34099;DHT22;20374;49.474;10.944;2023-02-15T13:01:18;3.80;99.90
34099;DHT22;20374;49.474;10.944;2023-02-15T13:04:04;4.00;99.90
34099;DHT22;20374;49.474;10.944;2023-02-15T13:06:35;4.20;99.90
34099;DHT22;20374;49.474;10.944;2023-02-15T13:09:21;4.40;99.90
34099;DHT22;20374;49.474;10.944;2023-02-15T13:11:49;4.80;99.90
34099;DHT22;20374;49.474;10.944;2023-02-15T13:16:44;5.80;99.90
34099;DHT22;20374;49.474;10.944;2023-02-15T13:21:41;7.60;99.90
34099;DHT22;20374;49.474;10.944;2023-02-15T13:24:22;8.50;99.90
34099;DHT22;20374;49.474;10.944;2023-02-15T13:26:49;9.60;99.90
34099;DHT22;20374;49.474;10.944;2023-02-15T13:29:33;9.90;99.90
34099;DHT22;20374;49.474;10.944;2023-02-15T13:32:10;10.90;98.10
34099;DHT22;20374;49.474;10.944;2023-02-15T13:34:39;10.90;96.40
34099;DHT22;20374;49.474;10.944;2023-02-15T13:37:19;11.30;96.90
34099;DHT22;20374;49.474;10.944;2023-02-15T13:42:32;12.50;93.90
34099;DHT22;20374;49.474;10.944;2023-02-15T13:48:00;12.70;93.20
34099;DHT22;20374;49.474;10.944;2023-02-15T13:50:33;12.80;91.80
34099;DHT22;20374;49.474;10.944;2023-02-15T13:59:31;13.30;90.50
34099;DHT22;20374;49.474;10.944;2023-02-15T14:14:18;13.60;83.10
34099;DHT22;20374;49.474;10.944;2023-02-15T14:16:20;13.50;86.40
34099;DHT22;20374;49.474;10.944;2023-02-15T14:22:18;13.10;83.60
34099;DHT22;20374;49.474;10.944;2023-02-15T14:24:49;13.40;86.80
34099;DHT22;20374;49.474;10.944;2023-02-15T14:27:42;13.60;84.70
34099;DHT22;20374;49.474;10.944;2023-02-15T14:30:20;14.00;85.30
34099;DHT22;20374;49.474;10.944;2023-02-15T14:32:49;14.30;85.10
34099;DHT22;20374;49.474;10.944;2023-02-15T14:35:20;14.30;84.60
34099;DHT22;20374;49.474;10.944;2023-02-15T14:40:48;14.20;80.90
34099;DHT22;20374;49.474;10.944;2023-02-15T14:46:52;13.00;82.40
34099;DHT22;20374;49.474;10.944;2023-02-15T14:49:40;13.00;82.90
34099;DHT22;20374;49.474;10.944;2023-02-15T14:52:10;12.80;82.90
34099;DHT22;20374;49.474;10.944;2023-02-15T14:59:45;12.20;84.20
34099;DHT22;20374;49.474;10.944;2023-02-15T15:05:09;12.10;87.30
34099;DHT22;20374;49.474;10.944;2023-02-15T15:07:54;12.00;89.10
34099;DHT22;20374;49.474;10.944;2023-02-15T15:12:47;12.20;87.70
34099;DHT22;20374;49.474;10.944;2023-02-15T15:18:06;12.10;89.80
34099;DHT22;20374;49.474;10.944;2023-02-15T15:20:48;12.00;90.30
34099;DHT22;20374;49.474;10.944;2023-02-15T15:25:47;11.70;90.10
34099;DHT22;20374;49.474;10.944;2023-02-15T15:49:56;8.60;96.50
34099;DHT22;20374;49.474;10.944;2023-02-15T15:52:23;7.80;98.70
34099;DHT22;20374;49.474;10.944;2023-02-15T15:55:02;7.10;99.90
34099;DHT22;20374;49.474;10.944;2023-02-15T15:57:33;6.60;99.90
34099;DHT22;20374;49.474;10.944;2023-02-15T16:00:02;6.10;99.90
34099;DHT22;20374;49.474;10.944;2023-02-15T16:02:50;5.70;99.90
34099;DHT22;20374;49.474;10.944;2023-02-15T16:05:16;5.50;99.90
34099;DHT22;20374;49.474;10.944;2023-02-15T16:07:42;5.20;99.90
34099;DHT22;20374;49.474;10.944;2023-02-15T16:10:24;5.00;99.90
34099;DHT22;20374;49.474;10.944;2023-02-15T16:12:51;4.80;99.90
34099;DHT22;20374;49.474;10.944;2023-02-15T16:15:20;4.50;99.90
34099;DHT22;20374;49.474;10.944;2023-02-15T16:17:52;4.40;99.90
34099;DHT22;20374;49.474;10.944;2023-02-15T16:20:34;4.20;99.90
34099;DHT22;20374;49.474;10.944;2023-02-15T16:26:35;3.90;99.90
34099;DHT22;20374;49.474;10.944;2023-02-15T16:29:14;3.70;99.90
34099;DHT22;20374;49.474;10.944;2023-02-15T16:31:41;3.50;99.90
34099;DHT22;20374;49.474;10.944;2023-02-15T16:34:16;3.30;99.90
34099;DHT22;20374;49.474;10.944;2023-02-15T16:36:43;3.10;99.90
34099;DHT22;20374;49.474;10.944;2023-02-15T16:39:17;3.00;99.90
34099;DHT22;20374;49.474;10.944;2023-02-15T16:41:44;2.90;99.90
34099;DHT22;20374;49.474;10.944;2023-02-15T16:44:17;2.70;99.90
34099;DHT22;20374;49.474;10.944;2023-02-15T16:46:47;2.60;99.90
34099;DHT22;20374;49.474;10.944;2023-02-15T16:49:34;2.50;99.90
34099;DHT22;20374;49.474;10.944;2023-02-15T16:52:02;2.40;99.90
34099;DHT22;20374;49.474;10.944;2023-02-15T16:54:29;2.30;99.90
34099;DHT22;20374;49.474;10.944;2023-02-15T16:56:57;2.20;99.90
34099;DHT22;20374;49.474;10.944;2023-02-15T16:59:34;2.20;99.90
34099;DHT22;20374;49.474;10.944;2023-02-15T17:02:04;1.90;99.90
34099;DHT22;20374;49.474;10.944;2023-02-15T17:04:32;1.90;99.90
34099;DHT22;20374;49.474;10.944;2023-02-15T17:07:04;1.80;99.90
34099;DHT22;20374;49.474;10.944;2023-02-15T17:09:31;1.70;99.90
34099;DHT22;20374;49.474;10.944;2023-02-15T17:11:57;1.60;99.90
34099;DHT22;20374;49.474;10.944;2023-02-15T17:14:30;1.60;99.90
34099;DHT22;20374;49.474;10.944;2023-02-15T17:17:01;1.70;99.90
34099;DHT22;20374;49.474;10.944;2023-02-15T17:19:41;1.80;99.90
34099;DHT22;20374;49.474;10.944;2023-02-15T17:22:21;1.90;99.90
34099;DHT22;20374;49.474;10.944;2023-02-15T17:24:48;1.90;99.90
34099;DHT22;20374;49.474;10.944;2023-02-15T17:27:23;1.90;99.90
34099;DHT22;20374;49.474;10.944;2023-02-15T17:29:52;1.90;99.90
34099;DHT22;20374;49.474;10.944;2023-02-15T17:32:23;1.90;99.90
34099;DHT22;20374;49.474;10.944;2023-02-15T17:40:18;1.70;99.90
34099;DHT22;20374;49.474;10.944;2023-02-15T17:42:44;1.70;99.90
34099;DHT22;20374;49.474;10.944;2023-02-15T17:45:10;1.60;99.90
34099;DHT22;20374;49.474;10.944;2023-02-15T17:47:36;1.60;99.90
34099;DHT22;20374;49.474;10.944;2023-02-15T17:50:06;1.50;99.90
34099;DHT22;20374;49.474;10.944;2023-02-15T17:52:32;1.50;99.90
34099;DHT22;20374;49.474;10.944;2023-02-15T17:54:59;1.40;99.90
34099;DHT22;20374;49.474;10.944;2023-02-15T17:57:46;1.40;99.90
34099;DHT22;20374;49.474;10.944;2023-02-15T18:00:13;1.40;99.90
34099;DHT22;20374;49.474;10.944;2023-02-15T18:02:58;1.40;99.90
34099;DHT22;20374;49.474;10.944;2023-02-15T18:05:43;1.30;99.90
34099;DHT22;20374;49.474;10.944;2023-02-15T18:08:27;1.30;99.90
34099;DHT22;20374;49.474;10.944;2023-02-15T18:11:12;1.30;99.90
34099;DHT22;20374;49.474;10.944;2023-02-15T18:13:57;1.20;99.90
34099;DHT22;20374;49.474;10.944;2023-02-15T18:16:30;1.10;99.90
34099;DHT22;20374;49.474;10.944;2023-02-15T18:18:58;1.10;99.90
34099;DHT22;20374;49.474;10.944;2023-02-15T18:21:24;1.00;99.90
34099;DHT22;20374;49.474;10.944;2023-02-15T18:23:50;0.90;99.90
34099;DHT22;20374;49.474;10.944;2023-02-15T18:26:19;0.90;99.90
34099;DHT22;20374;49.474;10.944;2023-02-15T18:28:46;0.80;99.90
34099;DHT22;20374;49.474;10.944;2023-02-15T18:31:12;0.80;99.90
34099;DHT22;20374;49.474;10.944;2023-02-15T18:33:43;0.70;99.90
34099;DHT22;20374;49.474;10.944;2023-02-15T18:36:19;0.70;99.90
34099;DHT22;20374;49.474;10.944;2023-02-15T18:38:46;0.70;99.90
34099;DHT22;20374;49.474;10.944;2023-02-15T18:41:18;0.60;99.90
34099;DHT22;20374;49.474;10.944;2023-02-15T18:43:45;0.50;99.90
34099;DHT22;20374;49.474;10.944;2023-02-15T18:46:11;0.50;99.90
34099;DHT22;20374;49.474;10.944;2023-02-15T18:48:37;0.60;99.90
34099;DHT22;20374;49.474;10.944;2023-02-15T18:51:03;0.50;99.90
34099;DHT22;20374;49.474;10.944;2023-02-15T18:53:30;0.60;99.90
34099;DHT22;20374;49.474;10.944;2023-02-15T18:55:56;0.60;99.90
34099;DHT22;20374;49.474;10.944;2023-02-15T18:58:21;0.60;99.90
34099;DHT22;20374;49.474;10.944;2023-02-15T19:00:52;0.60;99.90
34099;DHT22;20374;49.474;10.944;2023-02-15T19:03:19;0.70;99.90
34099;DHT22;20374;49.474;10.944;2023-02-15T19:05:46;0.70;99.90